Time;durP1;ratioP1;P1;durP2;ratioP2;P2;SDS_P1;SDS_P2;PMS_P1;PMS_P2;Temp;Humidity;BMP_temperature;BMP_pressure;BME280_temperature;BME280_humidity;BME280_pressure;Samples;Min_cycle;Max_cycle;Signal;HPM_P1;HPM_P2
2022/11/27 20:18:17;;;;;;;12.15;9.77;;;6.30;99.90;;;;;;5121521;27;20478;-72
2022/11/27 20:20:43;;;;;;;19.77;8.53;;;6.20;99.90;;;;;;5110789;27;20210;-72
2022/11/27 20:23:08;;;;;;;11.10;9.30;;;6.20;99.90;;;;;;5087512;28;20587;-73
2022/11/27 20:25:37;;;;;;;15.27;9.50;;;6.10;99.90;;;;;;5087113;28;20633;-72
2022/11/27 20:28:03;;;;;;;15.00;9.83;;;6.10;99.90;;;;;;5087513;28;20581;-73
2022/11/27 20:30:29;;;;;;;12.60;8.97;;;6.10;99.90;;;;;;5083120;27;20467;-73
2022/11/27 20:32:55;;;;;;;10.20;7.90;;;6.10;99.90;;;;;;5084050;28;20195;-73
2022/11/27 20:35:20;;;;;;;12.30;8.70;;;6.10;99.90;;;;;;5086575;28;20458;-72
2022/11/27 20:37:46;;;;;;;8.53;7.63;;;6.10;99.90;;;;;;5084560;28;20209;-72
2022/11/27 20:40:11;;;;;;;9.07;7.20;;;6.10;99.90;;;;;;5087256;28;20212;-73
2022/11/27 20:42:37;;;;;;;8.60;6.97;;;6.10;99.90;;;;;;5086685;28;20218;-73
2022/11/27 20:45:04;;;;;;;10.13;7.70;;;6.10;99.90;;;;;;5087271;28;20213;-73
2022/11/27 20:47:30;;;;;;;10.60;7.93;;;6.10;99.90;;;;;;5086903;28;20214;-73
2022/11/27 20:49:55;;;;;;;13.50;9.50;;;6.10;99.90;;;;;;5087392;28;20462;-73
2022/11/27 20:52:21;;;;;;;18.43;12.90;;;6.10;99.90;;;;;;5086794;28;20960;-72
2022/11/27 20:54:46;;;;;;;14.77;11.07;;;6.00;99.90;;;;;;5087129;28;20753;-72
2022/11/27 20:57:13;;;;;;;15.03;11.13;;;6.00;99.90;;;;;;5086877;28;20634;-73
2022/11/27 20:59:39;;;;;;;16.80;10.87;;;6.00;99.90;;;;;;5086749;28;20620;-73
2022/11/27 21:02:08;;;;;;;20.00;11.77;;;6.00;99.90;;;;;;5086603;28;20983;-73
2022/11/27 21:04:34;;;;;;;14.67;11.00;;;5.90;99.90;;;;;;5086658;28;20926;-73
2022/11/27 21:06:59;;;;;;;16.97;10.47;;;5.90;99.90;;;;;;5086784;28;20434;-73
2022/11/27 21:09:25;;;;;;;14.40;9.60;;;5.90;99.90;;;;;;5083915;28;20240;-73
2022/11/27 21:11:51;;;;;;;12.80;9.63;;;5.90;99.90;;;;;;5086375;28;20216;-73
2022/11/27 21:14:17;;;;;;;17.93;10.00;;;5.80;99.90;;;;;;5086609;28;20895;-73
2022/11/27 21:16:47;;;;;;;18.33;10.47;;;5.90;99.90;;;;;;5086234;28;20225;-73
2022/11/27 21:19:21;;;;;;;12.47;9.63;;;5.90;99.90;;;;;;5086631;28;20960;-73
2022/11/27 21:21:48;;;;;;;14.33;9.90;;;5.90;99.90;;;;;;5079183;28;20448;-73
2022/11/27 21:24:15;;;;;;;12.63;9.87;;;5.80;99.90;;;;;;5086381;28;20440;-73
2022/11/27 21:26:40;;;;;;;13.87;9.60;;;5.80;99.90;;;;;;5086172;28;20460;-72
2022/11/27 21:29:06;;;;;;;14.23;10.47;;;5.90;99.90;;;;;;5075653;28;20489;-73
2022/11/27 21:31:32;;;;;;;17.20;10.37;;;5.80;99.90;;;;;;5070996;28;20230;-73
2022/11/27 21:34:00;;;;;;;13.50;9.37;;;5.80;99.90;;;;;;5072692;28;20223;-74
2022/11/27 21:36:31;;;;;;;13.13;10.93;;;5.80;99.90;;;;;;5072251;28;20512;-73
2022/11/27 21:38:58;;;;;;;12.93;9.80;;;5.80;99.90;;;;;;5068538;28;20418;-73
2022/11/27 21:41:25;;;;;;;12.47;9.40;;;5.80;99.90;;;;;;5071397;28;20549;-72
2022/11/27 21:43:54;;;;;;;19.63;11.70;;;5.90;99.90;;;;;;5069628;28;21087;-73
2022/11/27 21:46:21;;;;;;;15.30;10.60;;;5.90;99.90;;;;;;5073157;28;20426;-73
2022/11/27 21:48:48;;;;;;;12.73;10.37;;;5.80;99.90;;;;;;5073204;28;20502;-73
2022/11/27 21:51:14;;;;;;;13.30;10.07;;;5.80;99.90;;;;;;5073192;28;20569;-73
2022/11/27 21:53:41;;;;;;;66.50;23.07;;;5.80;99.90;;;;;;5073154;28;20521;-73
2022/11/27 21:56:09;;;;;;;143.53;63.97;;;5.80;99.90;;;;;;5073410;28;20431;-73
2022/11/27 21:58:35;;;;;;;68.53;60.60;;;5.70;99.90;;;;;;5073181;28;20544;-73
2022/11/27 22:01:06;;;;;;;25.83;12.20;;;5.80;99.90;;;;;;5073310;28;20437;-73
2022/11/27 22:03:32;;;;;;;16.63;10.60;;;5.70;99.90;;;;;;5072704;28;20444;-74
2022/11/27 22:06:00;;;;;;;17.53;11.13;;;5.70;99.90;;;;;;5073237;28;20382;-73
2022/11/27 22:08:29;;;;;;;14.87;10.40;;;5.70;99.90;;;;;;5072906;28;20934;-74
2022/11/27 22:10:54;;;;;;;136.03;93.47;;;5.70;99.90;;;;;;5073205;28;20416;-73
2022/11/27 22:13:20;;;;;;;20.33;10.30;;;5.70;99.90;;;;;;5072568;28;20430;-74
2022/11/27 22:15:46;;;;;;;213.97;179.67;;;5.70;99.90;;;;;;5073198;28;20180;-73
2022/11/27 22:18:11;;;;;;;84.37;45.13;;;5.80;99.90;;;;;;5072597;28;20221;-74
2022/11/27 22:20:38;;;;;;;16.20;10.57;;;5.70;99.90;;;;;;5072977;28;20676;-74
2022/11/27 22:23:03;;;;;;;16.37;10.90;;;5.80;99.90;;;;;;5069264;28;20176;-74
2022/11/27 22:25:29;;;;;;;10.63;8.00;;;5.70;99.90;;;;;;5071542;28;20431;-73
2022/11/27 22:27:55;;;;;;;14.60;10.47;;;5.70;99.90;;;;;;5072780;28;20185;-74
2022/11/27 22:30:24;;;;;;;14.90;10.33;;;5.70;99.90;;;;;;5072864;28;20246;-73
2022/11/27 22:32:53;;;;;;;16.30;11.33;;;5.70;99.90;;;;;;5072461;28;20247;-73
2022/11/27 22:35:19;;;;;;;19.30;11.20;;;5.70;99.90;;;;;;5069006;28;21041;-74
2022/11/27 22:37:45;;;;;;;16.30;10.63;;;5.70;99.90;;;;;;5072515;28;20477;-73
2022/11/27 22:40:11;;;;;;;19.87;12.33;;;5.70;99.90;;;;;;5078170;28;20427;-73
2022/11/27 22:42:36;;;;;;;16.73;11.90;;;5.70;99.90;;;;;;5068759;28;20213;-73
2022/11/27 22:45:03;;;;;;;20.77;11.83;;;5.70;99.90;;;;;;5072430;28;20783;-73
2022/11/27 22:47:28;;;;;;;20.03;12.00;;;5.70;99.90;;;;;;5072080;28;20192;-74
2022/11/27 22:49:54;;;;;;;20.33;11.97;;;5.70;99.90;;;;;;5072354;28;20784;-73
2022/11/27 22:52:19;;;;;;;17.50;11.80;;;5.70;99.90;;;;;;5066354;28;20546;-74
2022/11/27 22:54:45;;;;;;;21.67;12.00;;;5.70;99.90;;;;;;5071699;28;20566;-74
2022/11/27 22:57:12;;;;;;;18.63;11.50;;;5.60;99.90;;;;;;5065462;28;20220;-74
2022/11/27 22:59:38;;;;;;;11.60;9.47;;;5.70;99.90;;;;;;5071820;28;20267;-74
2022/11/27 23:02:04;;;;;;;19.43;10.70;;;5.70;99.90;;;;;;5069412;28;20484;-73
2022/11/27 23:04:30;;;;;;;14.63;11.47;;;5.70;99.90;;;;;;5071087;28;20609;-73
2022/11/27 23:06:55;;;;;;;12.27;10.30;;;5.70;99.90;;;;;;5069823;28;20470;-74
2022/11/27 23:09:21;;;;;;;14.57;10.00;;;5.60;99.90;;;;;;5070921;28;20193;-74
2022/11/27 23:11:47;;;;;;;14.60;9.57;;;5.60;99.90;;;;;;5071106;28;20203;-74
2022/11/27 23:14:12;;;;;;;15.77;10.77;;;5.60;99.90;;;;;;5068218;28;20189;-74
2022/11/27 23:16:38;;;;;;;14.03;9.43;;;5.60;99.90;;;;;;5070729;28;20737;-74
2022/11/27 23:19:03;;;;;;;18.47;10.87;;;5.60;99.90;;;;;;5070599;28;20576;-74
2022/11/27 23:21:29;;;;;;;15.60;9.80;;;5.50;99.90;;;;;;5071371;28;20279;-72
2022/11/27 23:23:55;;;;;;;13.87;9.83;;;5.50;99.90;;;;;;5071440;28;20194;-72
2022/11/27 23:26:22;;;;;;;16.80;11.70;;;5.50;99.90;;;;;;5072973;28;20191;-74
2022/11/27 23:28:51;;;;;;;15.50;9.27;;;5.50;99.90;;;;;;5071559;28;20651;-72
2022/11/27 23:31:24;;;;;;;15.37;10.77;;;5.50;99.90;;;;;;5071348;28;20683;-73
2022/11/27 23:33:49;;;;;;;13.97;9.93;;;5.50;99.90;;;;;;5066369;28;20427;-73
2022/11/27 23:36:15;;;;;;;15.00;10.83;;;5.50;99.90;;;;;;5071409;28;20434;-73
2022/11/27 23:38:41;;;;;;;14.57;9.77;;;5.50;99.90;;;;;;5071408;28;20234;-73
2022/11/27 23:41:16;;;;;;;16.30;10.50;;;5.40;99.90;;;;;;5071456;28;20948;-73
2022/11/27 23:43:42;;;;;;;14.53;10.27;;;5.40;99.90;;;;;;5070775;28;20182;-73
2022/11/27 23:46:11;;;;;;;11.70;9.23;;;5.40;99.90;;;;;;5071483;28;20792;-72
2022/11/27 23:48:36;;;;;;;15.50;9.67;;;5.50;99.90;;;;;;5067845;28;20416;-73
2022/11/27 23:51:21;;;;;;;13.90;10.17;;;5.50;99.90;;;;;;5070822;28;20788;-73
2022/11/27 23:53:46;;;;;;;12.53;9.77;;;5.50;99.90;;;;;;5071102;28;20185;-72
2022/11/27 23:56:15;;;;;;;11.33;8.83;;;5.50;99.90;;;;;;5071358;28;20422;-72
2022/11/27 23:58:41;;;;;;;14.33;9.90;;;5.50;99.90;;;;;;5069958;28;20187;-73
